Portada
METAR-TAF:

METAR-TAF

Aeropuertos :

Aeropuerto de Valencia

Valencia, España

latitud: 39-30N, longitud: 000-28W, altitud: 69 m

Observación

El informe se hizo hace 36 minutos, a las 07:30 UTC
Viento 6 kt del oeste-noroeste
Temperatura 9°C
Humedad 61%
Presión 1019 hPa
Visibilidad 10 km o más
Escasas nubes a una altura de 5000 ft

METAR: LEVC 170730Z 29006KT 9999 FEW050 09/02 Q1019 NOSIG

Hora: 10:06 (08:06 UTC)

Pronóstico

El informe se hizo hace 3 horas y 6 minutos, a las 05:00 UTC
Pronóstico válido del 17 a las 06 UTC al 18 a las 06 UTC
Viento 4 kt del noroeste
Visibilidad 10 km o más
Cielo nuboso a una altura de 6000 ft
Evolucionando progresivamente
del 17 a las 10 UTC al 17 a las 12 UTC
Viento 10 kt del sureste

TAF: LEVC 170500Z 1706/1806 31004KT 9999 BKN060 TX16/1713Z TN05/1706Z BECMG 1710/1712 13010KT

Observaciones y pronósticos meteorológicos de más de 4000 aeropuertos (mensajes METAR y TAF).

Los puntos amarillos y rojos representan las estaciones disponibles.

Ponga el ratón en el punto deseado para ver el nombre de la estación.

Haga clic para ver las observaciones y los pronósticos meteorológicos.

Para cambiar el mapa : haga clic en los botones verdes con una cruz de color negro para hacer un zoom, en el botón verde con un guión para alejar o en las flechas verdes para mapas adyacentes.


METAR-TAF: